sensor_id;sensor_type;location;lat;lon;timestamp;P1;durP1;ratioP1;P2;durP2;ratioP2
68089;SDS011;54880;50.986;6.990;2023-08-20T00:02:06;11.65;;;6.68;;
68089;SDS011;54880;50.986;6.990;2023-08-20T00:04:32;12.60;;;6.97;;
68089;SDS011;54880;50.986;6.990;2023-08-20T00:07:00;12.20;;;6.78;;
68089;SDS011;54880;50.986;6.990;2023-08-20T00:09:25;11.27;;;7.33;;
68089;SDS011;54880;50.986;6.990;2023-08-20T00:11:52;12.02;;;7.15;;
68089;SDS011;54880;50.986;6.990;2023-08-20T00:14:17;13.57;;;6.80;;
68089;SDS011;54880;50.986;6.990;2023-08-20T00:16:43;14.50;;;7.07;;
68089;SDS011;54880;50.986;6.990;2023-08-20T00:19:08;15.38;;;7.50;;
68089;SDS011;54880;50.986;6.990;2023-08-20T00:21:34;14.40;;;7.37;;
68089;SDS011;54880;50.986;6.990;2023-08-20T00:24:00;13.90;;;7.30;;
68089;SDS011;54880;50.986;6.990;2023-08-20T00:26:25;12.93;;;7.27;;
68089;SDS011;54880;50.986;6.990;2023-08-20T00:28:50;12.33;;;7.40;;
68089;SDS011;54880;50.986;6.990;2023-08-20T00:31:15;14.50;;;7.40;;
68089;SDS011;54880;50.986;6.990;2023-08-20T00:33:41;14.43;;;7.20;;
68089;SDS011;54880;50.986;6.990;2023-08-20T00:36:06;12.67;;;7.03;;
68089;SDS011;54880;50.986;6.990;2023-08-20T00:38:32;12.63;;;6.80;;
68089;SDS011;54880;50.986;6.990;2023-08-20T00:40:57;13.13;;;7.63;;
68089;SDS011;54880;50.986;6.990;2023-08-20T00:43:22;11.13;;;6.90;;
68089;SDS011;54880;50.986;6.990;2023-08-20T00:45:48;12.53;;;7.30;;
68089;SDS011;54880;50.986;6.990;2023-08-20T00:48:13;11.97;;;6.30;;
68089;SDS011;54880;50.986;6.990;2023-08-20T00:50:39;12.30;;;7.28;;
68089;SDS011;54880;50.986;6.990;2023-08-20T00:53:05;10.98;;;6.40;;
68089;SDS011;54880;50.986;6.990;2023-08-20T00:55:31;14.35;;;6.78;;
68089;SDS011;54880;50.986;6.990;2023-08-20T00:57:57;12.47;;;6.80;;
68089;SDS011;54880;50.986;6.990;2023-08-20T01:00:23;15.25;;;7.25;;
68089;SDS011;54880;50.986;6.990;2023-08-20T01:02:48;13.93;;;7.10;;
68089;SDS011;54880;50.986;6.990;2023-08-20T01:05:13;15.60;;;7.07;;
68089;SDS011;54880;50.986;6.990;2023-08-20T01:10:10;13.32;;;7.20;;
68089;SDS011;54880;50.986;6.990;2023-08-20T01:12:38;13.85;;;7.05;;
68089;SDS011;54880;50.986;6.990;2023-08-20T01:15:04;10.67;;;6.40;;
68089;SDS011;54880;50.986;6.990;2023-08-20T01:17:30;10.80;;;6.55;;
68089;SDS011;54880;50.986;6.990;2023-08-20T01:19:57;13.32;;;7.13;;
68089;SDS011;54880;50.986;6.990;2023-08-20T01:25:24;12.70;;;7.17;;
68089;SDS011;54880;50.986;6.990;2023-08-20T01:30:50;12.95;;;7.30;;
68089;SDS011;54880;50.986;6.990;2023-08-20T01:33:17;13.02;;;7.03;;
68089;SDS011;54880;50.986;6.990;2023-08-20T01:35:43;13.10;;;6.82;;
68089;SDS011;54880;50.986;6.990;2023-08-20T01:38:14;11.17;;;7.17;;
68089;SDS011;54880;50.986;6.990;2023-08-20T01:40:40;11.93;;;6.73;;
68089;SDS011;54880;50.986;6.990;2023-08-20T01:43:05;13.20;;;7.00;;
68089;SDS011;54880;50.986;6.990;2023-08-20T01:45:30;13.88;;;6.82;;
68089;SDS011;54880;50.986;6.990;2023-08-20T01:47:55;11.45;;;6.93;;
68089;SDS011;54880;50.986;6.990;2023-08-20T01:50:21;9.95;;;6.43;;
68089;SDS011;54880;50.986;6.990;2023-08-20T01:52:46;20.33;;;7.23;;
68089;SDS011;54880;50.986;6.990;2023-08-20T01:55:11;12.20;;;7.07;;
68089;SDS011;54880;50.986;6.990;2023-08-20T01:57:36;11.13;;;6.37;;
68089;SDS011;54880;50.986;6.990;2023-08-20T02:00:02;11.27;;;6.60;;
68089;SDS011;54880;50.986;6.990;2023-08-20T02:02:38;12.80;;;6.78;;
68089;SDS011;54880;50.986;6.990;2023-08-20T02:05:04;13.27;;;7.50;;
68089;SDS011;54880;50.986;6.990;2023-08-20T02:07:29;11.80;;;6.90;;
68089;SDS011;54880;50.986;6.990;2023-08-20T02:09:54;12.47;;;6.93;;
68089;SDS011;54880;50.986;6.990;2023-08-20T02:12:20;16.57;;;7.60;;
68089;SDS011;54880;50.986;6.990;2023-08-20T02:14:45;10.97;;;7.07;;
68089;SDS011;54880;50.986;6.990;2023-08-20T02:17:10;11.47;;;6.67;;
68089;SDS011;54880;50.986;6.990;2023-08-20T02:19:37;14.05;;;7.22;;
68089;SDS011;54880;50.986;6.990;2023-08-20T02:22:02;12.57;;;7.07;;
68089;SDS011;54880;50.986;6.990;2023-08-20T02:24:27;12.33;;;7.13;;
68089;SDS011;54880;50.986;6.990;2023-08-20T02:26:53;13.60;;;6.93;;
68089;SDS011;54880;50.986;6.990;2023-08-20T02:29:18;10.93;;;7.00;;
68089;SDS011;54880;50.986;6.990;2023-08-20T02:31:43;11.30;;;6.27;;
68089;SDS011;54880;50.986;6.990;2023-08-20T02:34:09;11.50;;;7.30;;
68089;SDS011;54880;50.986;6.990;2023-08-20T02:36:34;12.07;;;7.13;;
68089;SDS011;54880;50.986;6.990;2023-08-20T02:38:59;12.77;;;7.43;;
68089;SDS011;54880;50.986;6.990;2023-08-20T02:41:24;11.73;;;7.43;;
68089;SDS011;54880;50.986;6.990;2023-08-20T02:43:50;12.10;;;6.90;;
68089;SDS011;54880;50.986;6.990;2023-08-20T02:46:15;13.57;;;7.60;;
68089;SDS011;54880;50.986;6.990;2023-08-20T02:48:40;14.60;;;7.00;;
68089;SDS011;54880;50.986;6.990;2023-08-20T02:51:05;13.00;;;7.67;;
68089;SDS011;54880;50.986;6.990;2023-08-20T02:53:31;12.03;;;7.30;;
68089;SDS011;54880;50.986;6.990;2023-08-20T02:55:56;12.30;;;7.33;;
68089;SDS011;54880;50.986;6.990;2023-08-20T02:58:21;13.57;;;6.70;;
68089;SDS011;54880;50.986;6.990;2023-08-20T03:00:47;12.27;;;7.30;;
68089;SDS011;54880;50.986;6.990;2023-08-20T03:03:13;12.90;;;7.60;;
68089;SDS011;54880;50.986;6.990;2023-08-20T03:05:40;13.00;;;7.38;;
68089;SDS011;54880;50.986;6.990;2023-08-20T03:08:05;13.98;;;7.30;;
68089;SDS011;54880;50.986;6.990;2023-08-20T03:10:31;12.60;;;7.50;;
68089;SDS011;54880;50.986;6.990;2023-08-20T03:12:57;13.60;;;7.07;;
68089;SDS011;54880;50.986;6.990;2023-08-20T03:15:23;11.07;;;7.30;;
68089;SDS011;54880;50.986;6.990;2023-08-20T03:17:48;12.93;;;7.97;;
68089;SDS011;54880;50.986;6.990;2023-08-20T03:20:13;12.60;;;7.20;;
68089;SDS011;54880;50.986;6.990;2023-08-20T03:22:38;16.00;;;7.60;;
68089;SDS011;54880;50.986;6.990;2023-08-20T03:25:04;11.77;;;7.67;;
68089;SDS011;54880;50.986;6.990;2023-08-20T03:27:30;12.52;;;6.97;;
68089;SDS011;54880;50.986;6.990;2023-08-20T03:29:55;12.53;;;7.43;;
68089;SDS011;54880;50.986;6.990;2023-08-20T03:32:21;12.87;;;7.80;;
68089;SDS011;54880;50.986;6.990;2023-08-20T03:34:46;14.48;;;8.02;;
68089;SDS011;54880;50.986;6.990;2023-08-20T03:37:16;12.52;;;7.45;;
68089;SDS011;54880;50.986;6.990;2023-08-20T03:39:41;14.97;;;7.47;;
68089;SDS011;54880;50.986;6.990;2023-08-20T03:42:07;11.33;;;7.20;;
68089;SDS011;54880;50.986;6.990;2023-08-20T03:44:32;12.43;;;7.57;;
68089;SDS011;54880;50.986;6.990;2023-08-20T03:46:57;13.07;;;7.30;;
68089;SDS011;54880;50.986;6.990;2023-08-20T03:49:24;13.23;;;7.03;;
68089;SDS011;54880;50.986;6.990;2023-08-20T03:51:49;10.83;;;7.23;;
68089;SDS011;54880;50.986;6.990;2023-08-20T03:54:15;12.50;;;7.47;;
68089;SDS011;54880;50.986;6.990;2023-08-20T03:56:40;11.50;;;7.13;;
68089;SDS011;54880;50.986;6.990;2023-08-20T03:59:06;11.63;;;7.13;;
68089;SDS011;54880;50.986;6.990;2023-08-20T04:01:31;12.30;;;7.83;;
68089;SDS011;54880;50.986;6.990;2023-08-20T04:03:56;12.33;;;7.33;;
68089;SDS011;54880;50.986;6.990;2023-08-20T04:06:22;16.47;;;8.23;;
68089;SDS011;54880;50.986;6.990;2023-08-20T04:08:48;15.90;;;9.20;;
68089;SDS011;54880;50.986;6.990;2023-08-20T04:11:14;17.85;;;9.70;;
68089;SDS011;54880;50.986;6.990;2023-08-20T04:13:39;12.93;;;7.47;;
68089;SDS011;54880;50.986;6.990;2023-08-20T04:16:05;13.83;;;7.60;;
68089;SDS011;54880;50.986;6.990;2023-08-20T04:18:30;16.73;;;9.47;;
68089;SDS011;54880;50.986;6.990;2023-08-20T04:20:56;16.92;;;9.95;;
68089;SDS011;54880;50.986;6.990;2023-08-20T04:23:23;16.60;;;9.75;;
68089;SDS011;54880;50.986;6.990;2023-08-20T04:25:48;15.50;;;9.50;;
68089;SDS011;54880;50.986;6.990;2023-08-20T04:28:15;14.35;;;9.10;;
68089;SDS011;54880;50.986;6.990;2023-08-20T04:30:40;18.30;;;10.02;;
68089;SDS011;54880;50.986;6.990;2023-08-20T04:33:05;14.03;;;9.13;;
68089;SDS011;54880;50.986;6.990;2023-08-20T04:35:31;17.13;;;10.03;;
68089;SDS011;54880;50.986;6.990;2023-08-20T04:37:57;16.05;;;9.40;;
68089;SDS011;54880;50.986;6.990;2023-08-20T04:40:23;16.52;;;10.05;;
68089;SDS011;54880;50.986;6.990;2023-08-20T04:42:50;14.90;;;9.18;;
68089;SDS011;54880;50.986;6.990;2023-08-20T04:45:16;14.35;;;8.60;;
68089;SDS011;54880;50.986;6.990;2023-08-20T04:47:45;20.48;;;12.68;;
68089;SDS011;54880;50.986;6.990;2023-08-20T04:50:10;17.97;;;9.80;;
68089;SDS011;54880;50.986;6.990;2023-08-20T04:52:36;15.73;;;10.02;;
68089;SDS011;54880;50.986;6.990;2023-08-20T04:55:02;17.30;;;9.97;;
68089;SDS011;54880;50.986;6.990;2023-08-20T04:57:27;16.80;;;9.85;;
68089;SDS011;54880;50.986;6.990;2023-08-20T04:59:54;14.98;;;9.25;;
68089;SDS011;54880;50.986;6.990;2023-08-20T05:02:38;20.20;;;9.73;;
68089;SDS011;54880;50.986;6.990;2023-08-20T05:05:04;14.73;;;9.27;;
68089;SDS011;54880;50.986;6.990;2023-08-20T05:07:30;15.37;;;9.83;;
68089;SDS011;54880;50.986;6.990;2023-08-20T05:09:55;18.37;;;9.50;;
68089;SDS011;54880;50.986;6.990;2023-08-20T05:12:20;16.57;;;9.83;;
68089;SDS011;54880;50.986;6.990;2023-08-20T05:14:46;15.15;;;9.52;;
68089;SDS011;54880;50.986;6.990;2023-08-20T05:17:11;15.73;;;9.10;;
68089;SDS011;54880;50.986;6.990;2023-08-20T05:19:37;16.57;;;9.80;;
68089;SDS011;54880;50.986;6.990;2023-08-20T05:22:02;16.13;;;9.67;;
68089;SDS011;54880;50.986;6.990;2023-08-20T05:24:31;13.55;;;8.57;;
68089;SDS011;54880;50.986;6.990;2023-08-20T05:27:09;16.37;;;9.53;;
68089;SDS011;54880;50.986;6.990;2023-08-20T05:29:35;14.55;;;9.32;;
68089;SDS011;54880;50.986;6.990;2023-08-20T05:32:01;13.45;;;9.13;;
68089;SDS011;54880;50.986;6.990;2023-08-20T05:34:26;16.17;;;8.70;;
68089;SDS011;54880;50.986;6.990;2023-08-20T05:36:51;15.07;;;8.50;;
68089;SDS011;54880;50.986;6.990;2023-08-20T05:39:17;16.17;;;8.80;;
68089;SDS011;54880;50.986;6.990;2023-08-20T05:41:43;14.30;;;9.00;;
68089;SDS011;54880;50.986;6.990;2023-08-20T05:44:09;19.17;;;9.70;;
68089;SDS011;54880;50.986;6.990;2023-08-20T05:46:34;15.15;;;9.52;;
68089;SDS011;54880;50.986;6.990;2023-08-20T05:49:00;17.13;;;9.03;;
68089;SDS011;54880;50.986;6.990;2023-08-20T05:51:30;16.65;;;8.70;;
68089;SDS011;54880;50.986;6.990;2023-08-20T05:53:55;14.93;;;8.80;;
68089;SDS011;54880;50.986;6.990;2023-08-20T05:56:21;14.87;;;9.00;;
68089;SDS011;54880;50.986;6.990;2023-08-20T05:58:46;14.67;;;8.70;;
68089;SDS011;54880;50.986;6.990;2023-08-20T06:01:11;14.77;;;8.67;;
68089;SDS011;54880;50.986;6.990;2023-08-20T06:03:37;14.38;;;8.65;;
68089;SDS011;54880;50.986;6.990;2023-08-20T06:06:02;14.07;;;9.03;;
68089;SDS011;54880;50.986;6.990;2023-08-20T06:08:28;13.03;;;8.17;;
68089;SDS011;54880;50.986;6.990;2023-08-20T06:10:53;16.20;;;8.80;;
68089;SDS011;54880;50.986;6.990;2023-08-20T06:13:18;16.83;;;9.30;;
68089;SDS011;54880;50.986;6.990;2023-08-20T06:15:43;15.67;;;9.53;;
68089;SDS011;54880;50.986;6.990;2023-08-20T06:18:09;16.53;;;10.03;;
68089;SDS011;54880;50.986;6.990;2023-08-20T06:20:34;15.47;;;10.20;;
68089;SDS011;54880;50.986;6.990;2023-08-20T06:22:59;15.50;;;9.83;;
68089;SDS011;54880;50.986;6.990;2023-08-20T06:25:24;16.13;;;9.07;;
68089;SDS011;54880;50.986;6.990;2023-08-20T06:27:50;14.27;;;9.20;;
68089;SDS011;54880;50.986;6.990;2023-08-20T06:30:15;16.87;;;9.40;;
68089;SDS011;54880;50.986;6.990;2023-08-20T06:32:40;14.70;;;9.80;;
68089;SDS011;54880;50.986;6.990;2023-08-20T06:35:06;28.93;;;18.27;;
68089;SDS011;54880;50.986;6.990;2023-08-20T06:37:31;25.97;;;17.70;;
68089;SDS011;54880;50.986;6.990;2023-08-20T06:39:56;26.45;;;16.20;;
68089;SDS011;54880;50.986;6.990;2023-08-20T06:42:21;26.77;;;16.90;;
68089;SDS011;54880;50.986;6.990;2023-08-20T06:44:47;30.87;;;19.77;;
68089;SDS011;54880;50.986;6.990;2023-08-20T06:47:12;30.37;;;18.40;;
68089;SDS011;54880;50.986;6.990;2023-08-20T06:49:40;27.83;;;16.60;;
68089;SDS011;54880;50.986;6.990;2023-08-20T06:52:05;21.93;;;14.60;;
68089;SDS011;54880;50.986;6.990;2023-08-20T06:54:30;22.90;;;13.30;;
68089;SDS011;54880;50.986;6.990;2023-08-20T06:56:55;23.20;;;13.17;;
68089;SDS011;54880;50.986;6.990;2023-08-20T06:59:21;23.33;;;14.10;;
68089;SDS011;54880;50.986;6.990;2023-08-20T07:01:46;23.77;;;15.03;;
68089;SDS011;54880;50.986;6.990;2023-08-20T07:04:11;21.27;;;13.90;;
68089;SDS011;54880;50.986;6.990;2023-08-20T07:06:38;21.65;;;14.52;;
68089;SDS011;54880;50.986;6.990;2023-08-20T07:09:03;20.47;;;13.73;;
68089;SDS011;54880;50.986;6.990;2023-08-20T07:11:29;25.67;;;14.67;;
68089;SDS011;54880;50.986;6.990;2023-08-20T07:13:54;22.37;;;14.47;;
68089;SDS011;54880;50.986;6.990;2023-08-20T07:16:19;23.88;;;15.88;;
68089;SDS011;54880;50.986;6.990;2023-08-20T07:18:44;25.02;;;15.90;;
68089;SDS011;54880;50.986;6.990;2023-08-20T07:21:10;24.50;;;15.38;;
68089;SDS011;54880;50.986;6.990;2023-08-20T07:23:35;24.33;;;15.98;;
68089;SDS011;54880;50.986;6.990;2023-08-20T07:26:10;27.17;;;16.38;;
68089;SDS011;54880;50.986;6.990;2023-08-20T07:28:36;23.77;;;15.05;;
68089;SDS011;54880;50.986;6.990;2023-08-20T07:31:20;31.42;;;18.10;;
68089;SDS011;54880;50.986;6.990;2023-08-20T07:33:46;25.90;;;17.67;;
68089;SDS011;54880;50.986;6.990;2023-08-20T07:36:12;27.05;;;18.02;;
68089;SDS011;54880;50.986;6.990;2023-08-20T07:38:38;31.60;;;18.80;;
68089;SDS011;54880;50.986;6.990;2023-08-20T07:41:06;29.60;;;18.00;;
68089;SDS011;54880;50.986;6.990;2023-08-20T07:43:31;32.90;;;19.30;;
68089;SDS011;54880;50.986;6.990;2023-08-20T07:45:57;33.57;;;19.87;;
68089;SDS011;54880;50.986;6.990;2023-08-20T07:48:22;36.55;;;22.42;;
68089;SDS011;54880;50.986;6.990;2023-08-20T07:50:47;35.83;;;22.73;;
68089;SDS011;54880;50.986;6.990;2023-08-20T07:53:12;38.47;;;21.98;;
68089;SDS011;54880;50.986;6.990;2023-08-20T07:55:38;32.53;;;19.17;;
68089;SDS011;54880;50.986;6.990;2023-08-20T07:58:03;28.23;;;16.43;;
68089;SDS011;54880;50.986;6.990;2023-08-20T08:00:28;24.00;;;15.23;;
68089;SDS011;54880;50.986;6.990;2023-08-20T08:02:54;23.57;;;14.37;;
68089;SDS011;54880;50.986;6.990;2023-08-20T08:05:19;21.23;;;12.73;;
68089;SDS011;54880;50.986;6.990;2023-08-20T08:07:44;23.47;;;13.30;;
68089;SDS011;54880;50.986;6.990;2023-08-20T08:10:10;20.10;;;11.47;;
68089;SDS011;54880;50.986;6.990;2023-08-20T08:12:35;20.77;;;12.50;;
68089;SDS011;54880;50.986;6.990;2023-08-20T08:15:00;16.77;;;10.93;;
68089;SDS011;54880;50.986;6.990;2023-08-20T08:17:26;19.10;;;11.95;;
68089;SDS011;54880;50.986;6.990;2023-08-20T08:19:51;18.37;;;11.27;;
68089;SDS011;54880;50.986;6.990;2023-08-20T08:22:18;19.73;;;12.00;;
68089;SDS011;54880;50.986;6.990;2023-08-20T08:24:44;18.57;;;11.73;;
68089;SDS011;54880;50.986;6.990;2023-08-20T08:27:09;17.40;;;9.88;;
68089;SDS011;54880;50.986;6.990;2023-08-20T08:29:35;17.88;;;11.07;;
68089;SDS011;54880;50.986;6.990;2023-08-20T08:32:00;18.07;;;10.90;;
68089;SDS011;54880;50.986;6.990;2023-08-20T08:34:25;20.07;;;11.47;;
68089;SDS011;54880;50.986;6.990;2023-08-20T08:36:51;17.43;;;10.83;;
68089;SDS011;54880;50.986;6.990;2023-08-20T08:39:16;20.00;;;11.47;;
68089;SDS011;54880;50.986;6.990;2023-08-20T08:41:41;20.60;;;11.70;;
68089;SDS011;54880;50.986;6.990;2023-08-20T08:44:08;19.15;;;11.45;;
68089;SDS011;54880;50.986;6.990;2023-08-20T08:46:34;19.70;;;10.60;;
68089;SDS011;54880;50.986;6.990;2023-08-20T08:49:00;18.30;;;10.23;;
68089;SDS011;54880;50.986;6.990;2023-08-20T08:51:25;17.50;;;10.20;;
68089;SDS011;54880;50.986;6.990;2023-08-20T08:53:51;17.23;;;9.68;;
68089;SDS011;54880;50.986;6.990;2023-08-20T08:56:16;15.77;;;9.77;;
68089;SDS011;54880;50.986;6.990;2023-08-20T08:58:42;15.33;;;10.27;;
68089;SDS011;54880;50.986;6.990;2023-08-20T09:01:07;16.83;;;9.80;;
68089;SDS011;54880;50.986;6.990;2023-08-20T09:03:32;21.63;;;10.47;;
68089;SDS011;54880;50.986;6.990;2023-08-20T09:05:59;18.40;;;11.00;;
68089;SDS011;54880;50.986;6.990;2023-08-20T09:08:26;18.63;;;10.95;;
68089;SDS011;54880;50.986;6.990;2023-08-20T09:10:52;15.68;;;10.70;;
68089;SDS011;54880;50.986;6.990;2023-08-20T09:13:24;17.37;;;10.77;;
68089;SDS011;54880;50.986;6.990;2023-08-20T09:15:50;16.95;;;9.32;;
68089;SDS011;54880;50.986;6.990;2023-08-20T09:18:17;14.98;;;8.95;;
68089;SDS011;54880;50.986;6.990;2023-08-20T09:20:42;16.60;;;9.57;;
68089;SDS011;54880;50.986;6.990;2023-08-20T09:23:11;17.43;;;9.53;;
68089;SDS011;54880;50.986;6.990;2023-08-20T09:25:37;15.48;;;9.63;;
68089;SDS011;54880;50.986;6.990;2023-08-20T09:28:02;14.70;;;8.70;;
68089;SDS011;54880;50.986;6.990;2023-08-20T09:30:28;15.88;;;8.23;;
68089;SDS011;54880;50.986;6.990;2023-08-20T09:33:12;15.93;;;8.73;;
68089;SDS011;54880;50.986;6.990;2023-08-20T09:35:46;16.33;;;9.38;;
68089;SDS011;54880;50.986;6.990;2023-08-20T09:38:13;14.77;;;8.97;;
68089;SDS011;54880;50.986;6.990;2023-08-20T09:40:38;14.73;;;8.63;;
68089;SDS011;54880;50.986;6.990;2023-08-20T09:43:04;15.30;;;7.78;;
68089;SDS011;54880;50.986;6.990;2023-08-20T09:45:33;14.02;;;8.02;;
68089;SDS011;54880;50.986;6.990;2023-08-20T09:47:58;13.40;;;7.80;;
68089;SDS011;54880;50.986;6.990;2023-08-20T09:50:24;15.32;;;7.07;;
68089;SDS011;54880;50.986;6.990;2023-08-20T09:52:57;14.90;;;7.70;;
68089;SDS011;54880;50.986;6.990;2023-08-20T09:55:24;13.25;;;6.95;;
68089;SDS011;54880;50.986;6.990;2023-08-20T09:57:52;11.27;;;6.78;;
68089;SDS011;54880;50.986;6.990;2023-08-20T10:00:18;11.80;;;6.60;;
68089;SDS011;54880;50.986;6.990;2023-08-20T10:02:44;11.30;;;6.13;;
68089;SDS011;54880;50.986;6.990;2023-08-20T10:05:10;11.90;;;6.37;;
68089;SDS011;54880;50.986;6.990;2023-08-20T10:07:36;10.25;;;5.00;;
68089;SDS011;54880;50.986;6.990;2023-08-20T10:10:03;7.93;;;4.20;;
68089;SDS011;54880;50.986;6.990;2023-08-20T10:12:29;11.20;;;4.90;;
68089;SDS011;54880;50.986;6.990;2023-08-20T10:14:55;12.50;;;7.18;;
68089;SDS011;54880;50.986;6.990;2023-08-20T10:17:22;11.60;;;7.03;;
68089;SDS011;54880;50.986;6.990;2023-08-20T10:19:47;14.47;;;8.00;;
68089;SDS011;54880;50.986;6.990;2023-08-20T10:22:12;14.90;;;9.13;;
68089;SDS011;54880;50.986;6.990;2023-08-20T10:24:41;18.33;;;11.07;;
68089;SDS011;54880;50.986;6.990;2023-08-20T10:27:10;17.87;;;10.70;;
68089;SDS011;54880;50.986;6.990;2023-08-20T10:29:39;15.35;;;10.15;;
68089;SDS011;54880;50.986;6.990;2023-08-20T10:32:11;19.15;;;10.80;;
68089;SDS011;54880;50.986;6.990;2023-08-20T10:34:37;17.73;;;9.18;;
68089;SDS011;54880;50.986;6.990;2023-08-20T10:37:12;15.50;;;10.07;;
68089;SDS011;54880;50.986;6.990;2023-08-20T10:39:38;16.83;;;9.53;;
68089;SDS011;54880;50.986;6.990;2023-08-20T10:45:00;14.82;;;9.20;;
68089;SDS011;54880;50.986;6.990;2023-08-20T10:47:43;14.88;;;9.45;;
68089;SDS011;54880;50.986;6.990;2023-08-20T10:50:15;17.03;;;10.20;;
68089;SDS011;54880;50.986;6.990;2023-08-20T10:52:41;15.77;;;9.05;;
68089;SDS011;54880;50.986;6.990;2023-08-20T10:55:07;14.75;;;8.93;;
68089;SDS011;54880;50.986;6.990;2023-08-20T10:57:33;18.95;;;10.02;;
68089;SDS011;54880;50.986;6.990;2023-08-20T10:59:59;15.90;;;8.50;;
68089;SDS011;54880;50.986;6.990;2023-08-20T11:02:26;14.00;;;8.20;;
68089;SDS011;54880;50.986;6.990;2023-08-20T11:04:52;13.55;;;8.27;;
68089;SDS011;54880;50.986;6.990;2023-08-20T11:07:18;13.93;;;8.27;;
68089;SDS011;54880;50.986;6.990;2023-08-20T11:09:44;12.63;;;7.80;;
68089;SDS011;54880;50.986;6.990;2023-08-20T11:12:14;14.38;;;8.75;;
68089;SDS011;54880;50.986;6.990;2023-08-20T11:14:39;14.00;;;8.10;;
68089;SDS011;54880;50.986;6.990;2023-08-20T11:17:04;13.43;;;8.30;;
68089;SDS011;54880;50.986;6.990;2023-08-20T11:19:30;14.63;;;7.93;;
68089;SDS011;54880;50.986;6.990;2023-08-20T11:21:55;11.17;;;7.20;;
68089;SDS011;54880;50.986;6.990;2023-08-20T11:24:20;11.90;;;7.73;;
68089;SDS011;54880;50.986;6.990;2023-08-20T11:26:46;11.50;;;7.57;;
68089;SDS011;54880;50.986;6.990;2023-08-20T11:29:12;11.47;;;7.73;;
68089;SDS011;54880;50.986;6.990;2023-08-20T11:31:38;15.20;;;8.70;;
68089;SDS011;54880;50.986;6.990;2023-08-20T11:34:04;11.05;;;7.90;;
68089;SDS011;54880;50.986;6.990;2023-08-20T11:36:29;14.33;;;7.30;;
68089;SDS011;54880;50.986;6.990;2023-08-20T11:38:55;10.77;;;7.15;;
68089;SDS011;54880;50.986;6.990;2023-08-20T11:41:20;13.23;;;8.90;;
68089;SDS011;54880;50.986;6.990;2023-08-20T11:43:49;11.45;;;7.07;;
68089;SDS011;54880;50.986;6.990;2023-08-20T11:46:19;10.20;;;6.60;;
68089;SDS011;54880;50.986;6.990;2023-08-20T11:51:29;11.30;;;6.78;;
68089;SDS011;54880;50.986;6.990;2023-08-20T11:53:55;10.77;;;6.50;;
68089;SDS011;54880;50.986;6.990;2023-08-20T11:56:20;11.40;;;6.82;;
68089;SDS011;54880;50.986;6.990;2023-08-20T11:58:51;11.00;;;6.97;;
68089;SDS011;54880;50.986;6.990;2023-08-20T12:01:17;11.35;;;6.90;;
68089;SDS011;54880;50.986;6.990;2023-08-20T12:03:43;11.73;;;7.68;;
68089;SDS011;54880;50.986;6.990;2023-08-20T12:06:21;12.23;;;7.27;;
68089;SDS011;54880;50.986;6.990;2023-08-20T12:08:48;10.90;;;7.20;;
68089;SDS011;54880;50.986;6.990;2023-08-20T12:11:13;13.47;;;7.50;;
68089;SDS011;54880;50.986;6.990;2023-08-20T12:13:39;9.30;;;7.27;;
68089;SDS011;54880;50.986;6.990;2023-08-20T12:16:04;11.53;;;7.43;;
68089;SDS011;54880;50.986;6.990;2023-08-20T12:18:30;12.57;;;8.57;;
68089;SDS011;54880;50.986;6.990;2023-08-20T12:20:56;10.38;;;6.97;;
68089;SDS011;54880;50.986;6.990;2023-08-20T12:23:21;13.13;;;7.60;;
68089;SDS011;54880;50.986;6.990;2023-08-20T12:25:49;11.25;;;7.00;;
68089;SDS011;54880;50.986;6.990;2023-08-20T12:28:15;10.13;;;6.20;;
68089;SDS011;54880;50.986;6.990;2023-08-20T12:30:41;10.88;;;6.22;;
68089;SDS011;54880;50.986;6.990;2023-08-20T12:33:06;10.00;;;6.13;;
68089;SDS011;54880;50.986;6.990;2023-08-20T12:35:32;11.07;;;6.27;;
68089;SDS011;54880;50.986;6.990;2023-08-20T12:37:57;10.63;;;6.00;;
68089;SDS011;54880;50.986;6.990;2023-08-20T12:40:22;13.47;;;6.20;;
68089;SDS011;54880;50.986;6.990;2023-08-20T12:42:47;9.47;;;6.47;;
68089;SDS011;54880;50.986;6.990;2023-08-20T12:45:13;9.67;;;5.80;;
68089;SDS011;54880;50.986;6.990;2023-08-20T12:47:39;10.38;;;6.10;;
68089;SDS011;54880;50.986;6.990;2023-08-20T12:50:05;11.27;;;7.65;;
68089;SDS011;54880;50.986;6.990;2023-08-20T12:52:31;11.60;;;6.63;;
68089;SDS011;54880;50.986;6.990;2023-08-20T12:54:57;11.82;;;6.72;;
68089;SDS011;54880;50.986;6.990;2023-08-20T12:57:22;9.80;;;6.33;;
68089;SDS011;54880;50.986;6.990;2023-08-20T12:59:47;9.50;;;6.30;;
68089;SDS011;54880;50.986;6.990;2023-08-20T13:02:12;10.70;;;6.37;;
68089;SDS011;54880;50.986;6.990;2023-08-20T13:04:38;9.00;;;6.40;;
68089;SDS011;54880;50.986;6.990;2023-08-20T13:07:03;10.10;;;5.87;;
68089;SDS011;54880;50.986;6.990;2023-08-20T13:09:29;10.07;;;6.65;;
68089;SDS011;54880;50.986;6.990;2023-08-20T13:11:56;10.27;;;6.83;;
68089;SDS011;54880;50.986;6.990;2023-08-20T13:14:22;9.07;;;6.40;;
68089;SDS011;54880;50.986;6.990;2023-08-20T13:16:47;11.55;;;6.00;;
68089;SDS011;54880;50.986;6.990;2023-08-20T13:19:12;9.57;;;6.17;;
68089;SDS011;54880;50.986;6.990;2023-08-20T13:21:38;9.43;;;6.00;;
68089;SDS011;54880;50.986;6.990;2023-08-20T13:24:03;9.97;;;6.27;;
68089;SDS011;54880;50.986;6.990;2023-08-20T13:26:29;10.13;;;6.38;;
68089;SDS011;54880;50.986;6.990;2023-08-20T13:28:54;9.20;;;5.97;;
68089;SDS011;54880;50.986;6.990;2023-08-20T13:31:20;9.97;;;5.90;;
68089;SDS011;54880;50.986;6.990;2023-08-20T13:33:45;11.03;;;6.10;;
68089;SDS011;54880;50.986;6.990;2023-08-20T13:36:10;8.47;;;6.00;;
68089;SDS011;54880;50.986;6.990;2023-08-20T13:38:35;9.77;;;5.73;;
68089;SDS011;54880;50.986;6.990;2023-08-20T13:41:01;8.97;;;5.97;;
68089;SDS011;54880;50.986;6.990;2023-08-20T13:43:26;8.70;;;6.07;;
68089;SDS011;54880;50.986;6.990;2023-08-20T13:45:52;8.10;;;5.57;;
68089;SDS011;54880;50.986;6.990;2023-08-20T13:48:17;9.47;;;6.13;;
68089;SDS011;54880;50.986;6.990;2023-08-20T13:50:42;11.07;;;5.30;;
68089;SDS011;54880;50.986;6.990;2023-08-20T13:53:09;8.80;;;5.68;;
68089;SDS011;54880;50.986;6.990;2023-08-20T13:55:35;9.47;;;5.40;;
68089;SDS011;54880;50.986;6.990;2023-08-20T13:58:00;9.33;;;5.30;;
68089;SDS011;54880;50.986;6.990;2023-08-20T14:00:25;9.13;;;5.47;;
68089;SDS011;54880;50.986;6.990;2023-08-20T14:02:51;9.65;;;5.90;;
68089;SDS011;54880;50.986;6.990;2023-08-20T14:05:16;8.73;;;5.00;;
68089;SDS011;54880;50.986;6.990;2023-08-20T14:07:43;8.70;;;5.25;;
68089;SDS011;54880;50.986;6.990;2023-08-20T14:10:08;9.57;;;5.47;;
68089;SDS011;54880;50.986;6.990;2023-08-20T14:12:34;9.90;;;5.83;;
68089;SDS011;54880;50.986;6.990;2023-08-20T14:14:59;8.87;;;5.60;;
68089;SDS011;54880;50.986;6.990;2023-08-20T14:17:24;15.80;;;5.63;;
68089;SDS011;54880;50.986;6.990;2023-08-20T14:19:50;7.82;;;5.18;;
68089;SDS011;54880;50.986;6.990;2023-08-20T14:22:15;8.93;;;5.57;;
68089;SDS011;54880;50.986;6.990;2023-08-20T14:24:40;9.63;;;5.67;;
68089;SDS011;54880;50.986;6.990;2023-08-20T14:27:06;9.63;;;5.40;;
68089;SDS011;54880;50.986;6.990;2023-08-20T14:29:32;7.63;;;5.03;;
68089;SDS011;54880;50.986;6.990;2023-08-20T14:31:57;9.37;;;6.73;;
68089;SDS011;54880;50.986;6.990;2023-08-20T14:34:23;7.57;;;5.10;;
68089;SDS011;54880;50.986;6.990;2023-08-20T14:36:48;8.77;;;5.60;;
68089;SDS011;54880;50.986;6.990;2023-08-20T14:39:13;8.27;;;5.27;;
68089;SDS011;54880;50.986;6.990;2023-08-20T14:41:39;7.90;;;5.38;;